sensor_id;sensor_type;location;lat;lon;timestamp;pressure;altitude;pressure_sealevel;temperature;humidity
70304;BME280;57712;48.752;11.348;2023-07-24T00:02:23;96921.56;;;18.75;100.00
70304;BME280;57712;48.752;11.348;2023-07-24T00:04:50;96914.84;;;18.62;100.00
70304;BME280;57712;48.752;11.348;2023-07-24T00:07:16;96910.28;;;18.79;100.00
70304;BME280;57712;48.752;11.348;2023-07-24T00:09:43;96910.44;;;18.70;100.00
70304;BME280;57712;48.752;11.348;2023-07-24T00:12:10;96911.25;;;18.76;100.00
70304;BME280;57712;48.752;11.348;2023-07-24T00:14:37;96910.81;;;18.63;100.00
70304;BME280;57712;48.752;11.348;2023-07-24T00:17:04;96910.41;;;18.50;100.00
70304;BME280;57712;48.752;11.348;2023-07-24T00:19:31;96915.25;;;18.55;100.00
70304;BME280;57712;48.752;11.348;2023-07-24T00:21:57;96909.44;;;18.53;100.00
70304;BME280;57712;48.752;11.348;2023-07-24T00:24:24;96915.25;;;18.55;100.00
70304;BME280;57712;48.752;11.348;2023-07-24T00:26:51;96924.56;;;18.52;100.00
70304;BME280;57712;48.752;11.348;2023-07-24T00:29:17;96927.34;;;18.52;100.00
70304;BME280;57712;48.752;11.348;2023-07-24T00:31:44;96923.75;;;18.66;100.00
70304;BME280;57712;48.752;11.348;2023-07-24T00:34:10;96919.00;;;18.52;100.00
70304;BME280;57712;48.752;11.348;2023-07-24T00:36:37;96923.13;;;18.56;100.00
70304;BME280;57712;48.752;11.348;2023-07-24T00:39:04;96918.22;;;18.66;100.00
70304;BME280;57712;48.752;11.348;2023-07-24T00:41:31;96921.44;;;18.64;100.00
70304;BME280;57712;48.752;11.348;2023-07-24T00:43:58;96921.50;;;18.50;100.00
70304;BME280;57712;48.752;11.348;2023-07-24T00:46:28;96912.34;;;18.43;100.00
70304;BME280;57712;48.752;11.348;2023-07-24T00:49:00;96906.13;;;18.49;100.00
70304;BME280;57712;48.752;11.348;2023-07-24T00:51:28;96905.28;;;18.42;100.00
70304;BME280;57712;48.752;11.348;2023-07-24T00:54:01;96908.00;;;18.57;100.00
70304;BME280;57712;48.752;11.348;2023-07-24T00:56:29;96912.06;;;18.62;100.00
70304;BME280;57712;48.752;11.348;2023-07-24T00:58:57;96909.75;;;18.34;100.00
70304;BME280;57712;48.752;11.348;2023-07-24T01:01:24;96911.59;;;18.23;100.00
70304;BME280;57712;48.752;11.348;2023-07-24T01:03:52;96905.50;;;18.39;100.00
70304;BME280;57712;48.752;11.348;2023-07-24T01:06:20;96903.47;;;18.19;100.00
70304;BME280;57712;48.752;11.348;2023-07-24T01:08:47;96906.25;;;18.39;100.00
70304;BME280;57712;48.752;11.348;2023-07-24T01:11:24;96914.72;;;18.30;100.00
70304;BME280;57712;48.752;11.348;2023-07-24T01:14:03;96908.34;;;18.44;100.00
70304;BME280;57712;48.752;11.348;2023-07-24T01:16:36;96911.13;;;18.44;100.00
70304;BME280;57712;48.752;11.348;2023-07-24T01:19:06;96905.84;;;18.46;100.00
70304;BME280;57712;48.752;11.348;2023-07-24T01:25:26;96895.28;;;18.51;100.00
70304;BME280;57712;48.752;11.348;2023-07-24T01:27:54;96918.31;;;18.57;100.00
70304;BME280;57712;48.752;11.348;2023-07-24T01:30:21;96932.59;;;18.29;100.00
70304;BME280;57712;48.752;11.348;2023-07-24T01:32:48;96935.91;;;18.33;100.00
70304;BME280;57712;48.752;11.348;2023-07-24T01:35:15;96935.91;;;18.33;100.00
70304;BME280;57712;48.752;11.348;2023-07-24T01:37:43;96934.00;;;18.39;100.00
70304;BME280;57712;48.752;11.348;2023-07-24T01:40:12;96940.25;;;18.34;100.00
70304;BME280;57712;48.752;11.348;2023-07-24T01:42:39;96913.31;;;18.40;100.00
70304;BME280;57712;48.752;11.348;2023-07-24T01:45:07;96877.13;;;18.50;100.00
70304;BME280;57712;48.752;11.348;2023-07-24T01:47:35;96886.56;;;18.58;100.00
70304;BME280;57712;48.752;11.348;2023-07-24T01:50:01;96882.19;;;18.71;100.00
70304;BME280;57712;48.752;11.348;2023-07-24T01:52:28;96905.50;;;18.80;100.00
70304;BME280;57712;48.752;11.348;2023-07-24T01:54:55;96899.56;;;18.92;100.00
70304;BME280;57712;48.752;11.348;2023-07-24T01:57:21;96894.34;;;19.00;100.00
70304;BME280;57712;48.752;11.348;2023-07-24T01:59:48;96889.81;;;19.02;100.00
70304;BME280;57712;48.752;11.348;2023-07-24T02:02:16;96892.44;;;19.12;100.00
70304;BME280;57712;48.752;11.348;2023-07-24T02:04:43;96890.47;;;19.18;100.00
70304;BME280;57712;48.752;11.348;2023-07-24T02:07:10;96876.59;;;19.18;100.00
70304;BME280;57712;48.752;11.348;2023-07-24T02:09:36;96876.75;;;19.09;100.00
70304;BME280;57712;48.752;11.348;2023-07-24T02:12:04;96872.25;;;19.17;100.00
70304;BME280;57712;48.752;11.348;2023-07-24T02:14:31;96873.03;;;19.17;100.00
70304;BME280;57712;48.752;11.348;2023-07-24T02:16:59;96886.22;;;19.22;100.00
70304;BME280;57712;48.752;11.348;2023-07-24T02:19:26;96889.22;;;19.19;100.00
70304;BME280;57712;48.752;11.348;2023-07-24T02:21:53;96880.78;;;19.08;100.00
70304;BME280;57712;48.752;11.348;2023-07-24T02:24:19;96891.66;;;19.11;100.00
70304;BME280;57712;48.752;11.348;2023-07-24T02:26:46;96890.56;;;19.03;100.00
70304;BME280;57712;48.752;11.348;2023-07-24T02:29:13;96895.78;;;18.95;100.00
70304;BME280;57712;48.752;11.348;2023-07-24T02:31:40;96887.75;;;18.97;100.00
70304;BME280;57712;48.752;11.348;2023-07-24T02:34:06;96876.56;;;18.86;100.00
70304;BME280;57712;48.752;11.348;2023-07-24T02:36:33;96868.38;;;18.77;100.00
70304;BME280;57712;48.752;11.348;2023-07-24T02:39:00;96859.22;;;18.71;100.00
70304;BME280;57712;48.752;11.348;2023-07-24T02:41:27;96850.63;;;18.69;100.00
70304;BME280;57712;48.752;11.348;2023-07-24T02:43:54;96856.19;;;18.69;100.00
70304;BME280;57712;48.752;11.348;2023-07-24T02:46:21;96846.97;;;18.57;100.00
70304;BME280;57712;48.752;11.348;2023-07-24T02:48:49;96857.28;;;18.57;100.00
70304;BME280;57712;48.752;11.348;2023-07-24T02:51:16;96856.56;;;18.62;100.00
70304;BME280;57712;48.752;11.348;2023-07-24T02:53:43;96863.47;;;18.66;100.00
70304;BME280;57712;48.752;11.348;2023-07-24T02:56:12;96853.31;;;18.63;100.00
70304;BME280;57712;48.752;11.348;2023-07-24T02:58:39;96859.22;;;18.51;100.00
70304;BME280;57712;48.752;11.348;2023-07-24T03:01:06;96862.63;;;18.60;100.00
70304;BME280;57712;48.752;11.348;2023-07-24T03:03:34;96878.91;;;18.53;100.00
70304;BME280;57712;48.752;11.348;2023-07-24T03:06:01;96892.94;;;18.43;100.00
70304;BME280;57712;48.752;11.348;2023-07-24T03:08:28;96910.28;;;18.38;100.00
70304;BME280;57712;48.752;11.348;2023-07-24T03:10:55;96930.38;;;18.33;100.00
70304;BME280;57712;48.752;11.348;2023-07-24T03:13:22;96971.69;;;18.31;100.00
70304;BME280;57712;48.752;11.348;2023-07-24T03:15:57;97075.66;;;17.62;100.00
70304;BME280;57712;48.752;11.348;2023-07-24T03:18:24;97101.16;;;17.66;100.00
70304;BME280;57712;48.752;11.348;2023-07-24T03:20:52;97080.72;;;17.64;100.00
70304;BME280;57712;48.752;11.348;2023-07-24T03:23:18;97072.88;;;17.62;100.00
70304;BME280;57712;48.752;11.348;2023-07-24T03:25:46;97046.31;;;17.55;100.00
70304;BME280;57712;48.752;11.348;2023-07-24T03:28:13;97009.03;;;17.27;100.00
70304;BME280;57712;48.752;11.348;2023-07-24T03:30:40;96985.97;;;17.30;100.00
70304;BME280;57712;48.752;11.348;2023-07-24T03:33:06;96920.47;;;17.42;100.00
70304;BME280;57712;48.752;11.348;2023-07-24T03:35:34;96831.13;;;16.97;100.00
70304;BME280;57712;48.752;11.348;2023-07-24T03:38:01;96801.00;;;16.99;100.00
70304;BME280;57712;48.752;11.348;2023-07-24T03:40:30;96761.69;;;16.95;100.00
70304;BME280;57712;48.752;11.348;2023-07-24T03:42:57;96744.59;;;16.96;100.00
70304;BME280;57712;48.752;11.348;2023-07-24T03:45:23;96765.03;;;16.99;100.00
70304;BME280;57712;48.752;11.348;2023-07-24T03:47:50;96769.50;;;17.11;100.00
70304;BME280;57712;48.752;11.348;2023-07-24T03:50:16;96789.31;;;17.24;100.00
70304;BME280;57712;48.752;11.348;2023-07-24T03:52:43;96784.38;;;17.14;100.00
70304;BME280;57712;48.752;11.348;2023-07-24T03:55:10;96793.16;;;17.12;100.00
70304;BME280;57712;48.752;11.348;2023-07-24T03:57:37;96802.88;;;17.22;100.00
70304;BME280;57712;48.752;11.348;2023-07-24T04:00:04;96814.66;;;17.38;100.00
70304;BME280;57712;48.752;11.348;2023-07-24T04:02:31;96821.53;;;17.42;100.00
70304;BME280;57712;48.752;11.348;2023-07-24T04:04:58;96827.47;;;17.35;100.00
70304;BME280;57712;48.752;11.348;2023-07-24T04:07:24;96840.59;;;17.55;100.00
70304;BME280;57712;48.752;11.348;2023-07-24T04:09:51;96850.34;;;17.50;100.00
70304;BME280;57712;48.752;11.348;2023-07-24T04:12:18;96843.50;;;17.46;100.00
70304;BME280;57712;48.752;11.348;2023-07-24T04:14:44;96851.28;;;17.62;100.00
70304;BME280;57712;48.752;11.348;2023-07-24T04:17:11;96845.16;;;17.58;100.00
70304;BME280;57712;48.752;11.348;2023-07-24T04:19:37;96852.22;;;17.59;100.00
70304;BME280;57712;48.752;11.348;2023-07-24T04:22:04;96837.34;;;17.56;100.00
70304;BME280;57712;48.752;11.348;2023-07-24T04:24:31;96831.97;;;17.68;100.00
70304;BME280;57712;48.752;11.348;2023-07-24T04:26:58;96848.31;;;17.66;100.00
70304;BME280;57712;48.752;11.348;2023-07-24T04:29:24;96845.75;;;17.62;100.00
70304;BME280;57712;48.752;11.348;2023-07-24T04:31:52;96861.59;;;17.76;100.00
70304;BME280;57712;48.752;11.348;2023-07-24T04:34:19;96859.47;;;17.71;100.00
70304;BME280;57712;48.752;11.348;2023-07-24T04:36:46;96864.03;;;17.89;100.00
70304;BME280;57712;48.752;11.348;2023-07-24T04:39:12;96863.25;;;17.88;100.00
70304;BME280;57712;48.752;11.348;2023-07-24T04:41:42;96861.59;;;17.97;100.00
70304;BME280;57712;48.752;11.348;2023-07-24T04:44:09;96853.03;;;17.95;100.00
70304;BME280;57712;48.752;11.348;2023-07-24T04:46:36;96836.59;;;18.11;100.00
70304;BME280;57712;48.752;11.348;2023-07-24T04:49:02;96836.88;;;18.13;100.00
70304;BME280;57712;48.752;11.348;2023-07-24T04:51:29;96841.63;;;18.33;100.00
70304;BME280;57712;48.752;11.348;2023-07-24T04:53:59;96838.66;;;18.37;100.00
70304;BME280;57712;48.752;11.348;2023-07-24T04:56:25;96813.38;;;18.29;100.00
70304;BME280;57712;48.752;11.348;2023-07-24T04:58:52;96789.16;;;18.30;100.00
70304;BME280;57712;48.752;11.348;2023-07-24T05:01:18;96796.16;;;18.45;100.00
70304;BME280;57712;48.752;11.348;2023-07-24T05:03:45;96807.16;;;18.14;100.00
70304;BME280;57712;48.752;11.348;2023-07-24T05:06:12;96811.47;;;18.41;100.00
70304;BME280;57712;48.752;11.348;2023-07-24T05:08:38;96809.63;;;18.12;100.00
70304;BME280;57712;48.752;11.348;2023-07-24T05:11:05;96799.53;;;18.09;100.00
70304;BME280;57712;48.752;11.348;2023-07-24T05:13:32;96792.94;;;18.27;100.00
70304;BME280;57712;48.752;11.348;2023-07-24T05:15:59;96803.56;;;18.34;100.00
70304;BME280;57712;48.752;11.348;2023-07-24T05:18:25;96793.47;;;18.31;100.00
70304;BME280;57712;48.752;11.348;2023-07-24T05:20:52;96783.81;;;18.46;100.00
70304;BME280;57712;48.752;11.348;2023-07-24T05:23:19;96798.81;;;18.60;100.00
70304;BME280;57712;48.752;11.348;2023-07-24T05:25:46;96803.59;;;18.86;100.00
70304;BME280;57712;48.752;11.348;2023-07-24T05:28:16;96804.41;;;19.18;100.00
70304;BME280;57712;48.752;11.348;2023-07-24T05:30:43;96789.06;;;19.28;100.00
70304;BME280;57712;48.752;11.348;2023-07-24T05:33:10;96777.97;;;19.28;100.00
70304;BME280;57712;48.752;11.348;2023-07-24T05:35:36;96793.00;;;19.53;100.00
70304;BME280;57712;48.752;11.348;2023-07-24T05:38:03;96783.75;;;19.62;100.00
70304;BME280;57712;48.752;11.348;2023-07-24T05:40:30;96775.97;;;19.71;100.00
70304;BME280;57712;48.752;11.348;2023-07-24T05:42:57;96765.34;;;19.70;100.00
70304;BME280;57712;48.752;11.348;2023-07-24T05:45:23;96768.94;;;19.87;100.00
70304;BME280;57712;48.752;11.348;2023-07-24T05:47:50;96751.75;;;19.83;100.00
70304;BME280;57712;48.752;11.348;2023-07-24T05:50:17;96735.50;;;19.65;100.00
70304;BME280;57712;48.752;11.348;2023-07-24T05:52:43;96735.03;;;19.77;100.00
70304;BME280;57712;48.752;11.348;2023-07-24T05:55:10;96757.47;;;19.63;100.00
70304;BME280;57712;48.752;11.348;2023-07-24T05:57:37;96752.47;;;19.78;100.00
70304;BME280;57712;48.752;11.348;2023-07-24T06:00:05;96767.75;;;20.10;100.00
70304;BME280;57712;48.752;11.348;2023-07-24T06:02:32;96770.56;;;20.22;100.00
70304;BME280;57712;48.752;11.348;2023-07-24T06:04:59;96760.53;;;20.35;100.00
70304;BME280;57712;48.752;11.348;2023-07-24T06:07:26;96757.06;;;20.91;100.00
70304;BME280;57712;48.752;11.348;2023-07-24T06:09:52;96740.09;;;21.00;100.00
70304;BME280;57712;48.752;11.348;2023-07-24T06:12:19;96765.66;;;21.21;100.00
70304;BME280;57712;48.752;11.348;2023-07-24T06:14:46;96767.44;;;21.07;100.00
70304;BME280;57712;48.752;11.348;2023-07-24T06:17:12;96770.22;;;21.13;100.00
70304;BME280;57712;48.752;11.348;2023-07-24T06:19:39;96760.34;;;20.56;100.00
70304;BME280;57712;48.752;11.348;2023-07-24T06:22:05;96758.81;;;20.60;100.00
70304;BME280;57712;48.752;11.348;2023-07-24T06:24:32;96741.75;;;20.13;100.00
70304;BME280;57712;48.752;11.348;2023-07-24T06:26:59;96749.03;;;19.94;100.00
70304;BME280;57712;48.752;11.348;2023-07-24T06:29:25;96765.16;;;19.90;100.00
70304;BME280;57712;48.752;11.348;2023-07-24T06:31:52;96766.97;;;19.93;100.00
70304;BME280;57712;48.752;11.348;2023-07-24T06:34:19;96778.63;;;20.08;100.00
70304;BME280;57712;48.752;11.348;2023-07-24T06:36:46;96802.75;;;20.34;100.00
70304;BME280;57712;48.752;11.348;2023-07-24T06:39:13;96800.53;;;19.84;100.00
70304;BME280;57712;48.752;11.348;2023-07-24T06:41:39;96773.78;;;19.92;100.00
70304;BME280;57712;48.752;11.348;2023-07-24T06:44:06;96774.72;;;19.78;100.00
70304;BME280;57712;48.752;11.348;2023-07-24T06:46:33;96764.66;;;19.86;100.00
70304;BME280;57712;48.752;11.348;2023-07-24T06:48:59;96756.81;;;19.84;100.00
70304;BME280;57712;48.752;11.348;2023-07-24T06:51:26;96775.56;;;20.01;100.00
70304;BME280;57712;48.752;11.348;2023-07-24T06:53:52;96799.94;;;20.23;100.00
70304;BME280;57712;48.752;11.348;2023-07-24T06:56:19;96818.88;;;20.18;100.00
70304;BME280;57712;48.752;11.348;2023-07-24T06:58:46;96807.56;;;19.74;100.00
70304;BME280;57712;48.752;11.348;2023-07-24T07:01:12;96798.78;;;19.86;100.00
70304;BME280;57712;48.752;11.348;2023-07-24T07:03:39;96796.91;;;19.67;100.00
70304;BME280;57712;48.752;11.348;2023-07-24T07:06:06;96832.75;;;19.65;100.00
70304;BME280;57712;48.752;11.348;2023-07-24T07:08:33;96861.16;;;19.48;100.00
70304;BME280;57712;48.752;11.348;2023-07-24T07:11:00;96868.44;;;19.40;100.00
70304;BME280;57712;48.752;11.348;2023-07-24T07:13:27;96921.97;;;19.15;100.00
70304;BME280;57712;48.752;11.348;2023-07-24T07:15:54;96927.16;;;19.01;100.00
70304;BME280;57712;48.752;11.348;2023-07-24T07:18:20;96901.00;;;19.08;100.00
70304;BME280;57712;48.752;11.348;2023-07-24T07:20:48;96919.44;;;19.11;100.00
70304;BME280;57712;48.752;11.348;2023-07-24T07:23:15;96915.72;;;18.94;100.00
70304;BME280;57712;48.752;11.348;2023-07-24T07:25:42;96919.00;;;18.92;100.00
70304;BME280;57712;48.752;11.348;2023-07-24T07:28:15;96919.97;;;18.89;100.00
70304;BME280;57712;48.752;11.348;2023-07-24T07:30:43;96910.94;;;18.94;100.00
70304;BME280;57712;48.752;11.348;2023-07-24T07:33:11;96912.78;;;19.03;100.00
70304;BME280;57712;48.752;11.348;2023-07-24T07:35:38;96907.22;;;19.03;100.00
70304;BME280;57712;48.752;11.348;2023-07-24T07:38:04;96898.47;;;19.10;100.00
70304;BME280;57712;48.752;11.348;2023-07-24T07:40:31;96906.75;;;19.04;100.00
70304;BME280;57712;48.752;11.348;2023-07-24T07:42:58;96911.34;;;19.08;100.00
70304;BME280;57712;48.752;11.348;2023-07-24T07:45:24;96914.09;;;19.08;100.00
70304;BME280;57712;48.752;11.348;2023-07-24T07:47:51;96914.41;;;19.15;100.00
70304;BME280;57712;48.752;11.348;2023-07-24T07:50:20;96916.59;;;19.06;100.00
70304;BME280;57712;48.752;11.348;2023-07-24T07:52:49;96921.28;;;19.20;100.00
70304;BME280;57712;48.752;11.348;2023-07-24T07:55:20;96922.81;;;19.21;100.00
70304;BME280;57712;48.752;11.348;2023-07-24T07:57:46;96925.31;;;19.19;100.00
70304;BME280;57712;48.752;11.348;2023-07-24T08:00:13;96932.28;;;19.09;100.00
70304;BME280;57712;48.752;11.348;2023-07-24T08:02:40;96927.44;;;19.03;100.00
70304;BME280;57712;48.752;11.348;2023-07-24T08:05:08;96927.50;;;19.09;100.00
70304;BME280;57712;48.752;11.348;2023-07-24T08:07:45;96925.41;;;19.04;100.00
70304;BME280;57712;48.752;11.348;2023-07-24T08:10:12;96909.63;;;18.90;100.00
70304;BME280;57712;48.752;11.348;2023-07-24T08:12:43;96888.53;;;18.98;100.00
70304;BME280;57712;48.752;11.348;2023-07-24T08:15:10;96893.75;;;18.90;100.00
70304;BME280;57712;48.752;11.348;2023-07-24T08:17:37;96897.31;;;18.96;100.00
70304;BME280;57712;48.752;11.348;2023-07-24T08:20:04;96901.25;;;18.84;100.00
70304;BME280;57712;48.752;11.348;2023-07-24T08:22:31;96924.84;;;18.74;100.00
70304;BME280;57712;48.752;11.348;2023-07-24T08:24:58;96902.06;;;18.90;100.00
70304;BME280;57712;48.752;11.348;2023-07-24T08:27:25;96902.22;;;18.81;100.00
70304;BME280;57712;48.752;11.348;2023-07-24T08:29:52;96887.19;;;18.93;100.00
70304;BME280;57712;48.752;11.348;2023-07-24T08:32:21;96863.00;;;19.25;100.00
70304;BME280;57712;48.752;11.348;2023-07-24T08:34:48;96853.59;;;19.17;100.00
70304;BME280;57712;48.752;11.348;2023-07-24T08:37:14;96838.69;;;19.15;100.00
70304;BME280;57712;48.752;11.348;2023-07-24T08:39:41;96843.44;;;19.09;100.00
70304;BME280;57712;48.752;11.348;2023-07-24T08:42:12;96845.22;;;19.12;100.00
70304;BME280;57712;48.752;11.348;2023-07-24T08:44:39;96825.88;;;19.23;100.00
70304;BME280;57712;48.752;11.348;2023-07-24T08:47:10;96817.31;;;19.58;100.00
70304;BME280;57712;48.752;11.348;2023-07-24T08:49:38;96822.22;;;19.80;100.00
70304;BME280;57712;48.752;11.348;2023-07-24T08:52:07;96828.06;;;19.82;100.00
70304;BME280;57712;48.752;11.348;2023-07-24T08:54:39;96822.16;;;20.11;100.00
70304;BME280;57712;48.752;11.348;2023-07-24T08:57:06;96830.25;;;20.15;100.00
70304;BME280;57712;48.752;11.348;2023-07-24T08:59:34;96849.75;;;20.32;100.00
70304;BME280;57712;48.752;11.348;2023-07-24T09:02:01;96841.53;;;20.60;100.00
70304;BME280;57712;48.752;11.348;2023-07-24T09:04:28;96848.09;;;20.51;100.00
70304;BME280;57712;48.752;11.348;2023-07-24T09:06:57;96833.72;;;20.69;100.00
70304;BME280;57712;48.752;11.348;2023-07-24T09:09:29;96816.53;;;20.77;100.00
70304;BME280;57712;48.752;11.348;2023-07-24T09:11:56;96795.56;;;21.37;100.00
70304;BME280;57712;48.752;11.348;2023-07-24T09:14:28;96789.47;;;21.39;100.00
70304;BME280;57712;48.752;11.348;2023-07-24T09:17:08;96792.00;;;21.31;100.00
70304;BME280;57712;48.752;11.348;2023-07-24T09:19:36;96769.94;;;21.50;100.00
70304;BME280;57712;48.752;11.348;2023-07-24T09:22:13;96777.88;;;22.04;100.00
70304;BME280;57712;48.752;11.348;2023-07-24T09:27:17;96771.53;;;22.14;100.00
70304;BME280;57712;48.752;11.348;2023-07-24T09:29:45;96769.66;;;22.69;100.00
70304;BME280;57712;48.752;11.348;2023-07-24T09:32:22;96752.38;;;22.71;100.00
70304;BME280;57712;48.752;11.348;2023-07-24T09:34:50;96746.69;;;22.93;100.00
70304;BME280;57712;48.752;11.348;2023-07-24T09:37:30;96731.50;;;23.13;100.00
70304;BME280;57712;48.752;11.348;2023-07-24T09:39:57;96725.69;;;23.11;100.00
70304;BME280;57712;48.752;11.348;2023-07-24T09:42:32;96723.19;;;23.56;100.00
70304;BME280;57712;48.752;11.348;2023-07-24T09:45:03;96714.44;;;23.41;100.00
70304;BME280;57712;48.752;11.348;2023-07-24T09:47:31;96733.28;;;23.41;100.00
70304;BME280;57712;48.752;11.348;2023-07-24T09:50:16;96730.31;;;23.57;100.00
70304;BME280;57712;48.752;11.348;2023-07-24T09:52:44;96735.75;;;23.93;100.00
70304;BME280;57712;48.752;11.348;2023-07-24T09:55:15;96737.75;;;23.98;100.00
70304;BME280;57712;48.752;11.348;2023-07-24T09:57:46;96729.78;;;24.02;100.00
70304;BME280;57712;48.752;11.348;2023-07-24T10:00:14;96724.44;;;24.42;100.00
70304;BME280;57712;48.752;11.348;2023-07-24T10:02:41;96726.50;;;24.73;100.00
70304;BME280;57712;48.752;11.348;2023-07-24T10:05:08;96727.50;;;24.89;100.00
70304;BME280;57712;48.752;11.348;2023-07-24T10:07:35;96725.00;;;24.72;100.00
70304;BME280;57712;48.752;11.348;2023-07-24T10:10:02;96729.13;;;25.17;100.00
70304;BME280;57712;48.752;11.348;2023-07-24T10:12:29;96734.34;;;24.94;100.00
70304;BME280;57712;48.752;11.348;2023-07-24T10:14:57;96722.34;;;25.25;100.00
70304;BME280;57712;48.752;11.348;2023-07-24T10:17:38;96731.22;;;25.56;100.00
70304;BME280;57712;48.752;11.348;2023-07-24T10:37:47;96716.97;;;25.27;100.00
70304;BME280;57712;48.752;11.348;2023-07-24T10:40:20;96706.56;;;25.09;100.00
70304;BME280;57712;48.752;11.348;2023-07-24T10:43:07;96708.13;;;25.50;100.00
70304;BME280;57712;48.752;11.348;2023-07-24T10:45:50;96712.88;;;25.81;100.00
70304;BME280;57712;48.752;11.348;2023-07-24T10:48:19;96726.09;;;25.01;100.00
70304;BME280;57712;48.752;11.348;2023-07-24T10:50:48;96713.34;;;24.68;100.00
70304;BME280;57712;48.752;11.348;2023-07-24T10:53:21;96719.41;;;24.72;100.00
70304;BME280;57712;48.752;11.348;2023-07-24T10:55:48;96726.91;;;24.27;100.00
70304;BME280;57712;48.752;11.348;2023-07-24T10:58:16;96720.72;;;24.15;100.00
70304;BME280;57712;48.752;11.348;2023-07-24T11:00:44;96713.13;;;24.66;100.00
70304;BME280;57712;48.752;11.348;2023-07-24T11:03:12;96716.63;;;24.86;100.00
70304;BME280;57712;48.752;11.348;2023-07-24T11:05:44;96708.16;;;24.22;100.00
70304;BME280;57712;48.752;11.348;2023-07-24T11:08:20;96720.69;;;24.71;100.00
70304;BME280;57712;48.752;11.348;2023-07-24T11:10:48;96720.56;;;24.45;100.00
70304;BME280;57712;48.752;11.348;2023-07-24T11:13:16;96710.28;;;24.53;100.00
70304;BME280;57712;48.752;11.348;2023-07-24T11:15:43;96718.53;;;24.45;100.00
70304;BME280;57712;48.752;11.348;2023-07-24T11:18:10;96723.22;;;24.18;100.00
70304;BME280;57712;48.752;11.348;2023-07-24T11:20:38;96721.66;;;24.42;100.00
70304;BME280;57712;48.752;11.348;2023-07-24T11:23:05;96720.94;;;23.98;100.00
70304;BME280;57712;48.752;11.348;2023-07-24T11:25:32;96734.25;;;23.92;100.00
70304;BME280;57712;48.752;11.348;2023-07-24T11:27:59;96725.81;;;23.49;100.00
70304;BME280;57712;48.752;11.348;2023-07-24T11:30:26;96733.09;;;23.57;100.00
70304;BME280;57712;48.752;11.348;2023-07-24T11:32:52;96731.56;;;23.32;100.00
70304;BME280;57712;48.752;11.348;2023-07-24T11:35:20;96717.38;;;23.79;100.00
70304;BME280;57712;48.752;11.348;2023-07-24T11:37:48;96715.19;;;23.90;100.00
70304;BME280;57712;48.752;11.348;2023-07-24T11:40:14;96713.06;;;23.78;100.00
70304;BME280;57712;48.752;11.348;2023-07-24T11:42:43;96710.66;;;23.87;100.00
70304;BME280;57712;48.752;11.348;2023-07-24T11:45:10;96713.84;;;23.97;100.00
70304;BME280;57712;48.752;11.348;2023-07-24T11:47:48;96701.13;;;24.34;100.00
70304;BME280;57712;48.752;11.348;2023-07-24T11:50:17;96688.38;;;24.70;100.00
70304;BME280;57712;48.752;11.348;2023-07-24T11:52:46;96697.16;;;24.61;100.00
70304;BME280;57712;48.752;11.348;2023-07-24T11:55:18;96698.78;;;24.38;100.00
70304;BME280;57712;48.752;11.348;2023-07-24T11:57:59;96709.31;;;24.32;100.00
70304;BME280;57712;48.752;11.348;2023-07-24T12:00:26;96716.16;;;23.93;100.00
70304;BME280;57712;48.752;11.348;2023-07-24T12:02:59;96708.47;;;23.99;100.00
70304;BME280;57712;48.752;11.348;2023-07-24T12:05:26;96714.56;;;23.79;100.00
70304;BME280;57712;48.752;11.348;2023-07-24T12:07:54;96722.94;;;23.54;100.00
70304;BME280;57712;48.752;11.348;2023-07-24T12:10:26;96748.28;;;23.68;100.00
70304;BME280;57712;48.752;11.348;2023-07-24T12:12:58;96783.56;;;23.46;100.00
70304;BME280;57712;48.752;11.348;2023-07-24T12:15:25;96802.28;;;22.91;100.00
70304;BME280;57712;48.752;11.348;2023-07-24T12:17:53;96819.41;;;22.71;100.00
70304;BME280;57712;48.752;11.348;2023-07-24T12:20:20;96845.59;;;22.68;100.00
70304;BME280;57712;48.752;11.348;2023-07-24T12:22:47;96842.97;;;22.34;100.00
70304;BME280;57712;48.752;11.348;2023-07-24T12:25:14;96864.34;;;21.98;100.00
70304;BME280;57712;48.752;11.348;2023-07-24T12:27:42;96873.81;;;21.78;100.00
70304;BME280;57712;48.752;11.348;2023-07-24T12:30:09;96872.53;;;21.63;100.00
70304;BME280;57712;48.752;11.348;2023-07-24T12:32:36;96879.91;;;21.26;100.00
70304;BME280;57712;48.752;11.348;2023-07-24T12:35:03;96904.16;;;21.09;100.00
70304;BME280;57712;48.752;11.348;2023-07-24T12:37:29;96910.69;;;20.84;100.00
70304;BME280;57712;48.752;11.348;2023-07-24T12:39:57;96907.34;;;20.68;100.00
70304;BME280;57712;48.752;11.348;2023-07-24T12:42:23;96874.66;;;20.52;100.00
70304;BME280;57712;48.752;11.348;2023-07-24T12:44:50;96862.94;;;20.37;100.00
70304;BME280;57712;48.752;11.348;2023-07-24T12:47:17;96854.00;;;20.16;100.00
70304;BME280;57712;48.752;11.348;2023-07-24T12:49:44;96871.72;;;20.18;100.00
70304;BME280;57712;48.752;11.348;2023-07-24T12:52:11;96869.88;;;20.04;100.00
70304;BME280;57712;48.752;11.348;2023-07-24T12:54:37;96849.75;;;20.32;100.00
70304;BME280;57712;48.752;11.348;2023-07-24T12:57:24;96857.44;;;20.48;100.00
70304;BME280;57712;48.752;11.348;2023-07-24T12:59:52;96814.34;;;20.27;100.00
70304;BME280;57712;48.752;11.348;2023-07-24T13:02:19;96804.59;;;20.59;100.00
70304;BME280;57712;48.752;11.348;2023-07-24T13:04:46;96825.47;;;20.27;100.00
70304;BME280;57712;48.752;11.348;2023-07-24T13:07:13;96794.22;;;20.43;100.00
70304;BME280;57712;48.752;11.348;2023-07-24T13:09:40;96769.38;;;20.34;100.00